Terminal Aerodrome Forecast
Issued by NWS

Current Version | Previous Version | Graphics & Text | Print | Product List | Glossary On
Versions: 1 2 3 4 5 6 7 8 9 10 11 12 13 14 15 16 17 18 19 20 21 22 23
660
FTUS41 KILN 210539
TAFLUK
TAF
KLUK 210539Z 2106/2206 19010KT P6SM SCT080
     FM211000 20012KT P6SM VCSH BKN028 OVC080
     FM211200 32011KT 5SM -SHRA BR BKN008 OVC015
     FM211600 01009KT P6SM VCSH OVC009
     FM212300 02012KT 5SM BR OVC012
     FM220200 03012KT 2SM -RA BR OVC006=

USA.gov is the U.S. government's official web portal to all federal, state and local government web resources and services.